sensor_id;sensor_type;location;lat;lon;timestamp;temperature;humidity
12704;DHT22;6416;52.182;7.650;2023-04-03T00:00:11;7.50;58.80
12704;DHT22;6416;52.182;7.650;2023-04-03T00:02:37;7.50;58.90
12704;DHT22;6416;52.182;7.650;2023-04-03T00:05:02;7.50;59.00
12704;DHT22;6416;52.182;7.650;2023-04-03T00:07:28;7.40;59.00
12704;DHT22;6416;52.182;7.650;2023-04-03T00:09:53;7.40;59.10
12704;DHT22;6416;52.182;7.650;2023-04-03T00:12:19;7.40;59.10
12704;DHT22;6416;52.182;7.650;2023-04-03T00:14:44;7.30;59.10
12704;DHT22;6416;52.182;7.650;2023-04-03T00:17:10;7.30;59.20
12704;DHT22;6416;52.182;7.650;2023-04-03T00:19:35;7.30;59.30
12704;DHT22;6416;52.182;7.650;2023-04-03T00:22:01;7.20;59.30
12704;DHT22;6416;52.182;7.650;2023-04-03T00:24:26;7.20;59.40
12704;DHT22;6416;52.182;7.650;2023-04-03T00:26:52;7.10;59.40
12704;DHT22;6416;52.182;7.650;2023-04-03T00:29:17;7.10;59.50
12704;DHT22;6416;52.182;7.650;2023-04-03T00:31:43;7.00;59.50
12704;DHT22;6416;52.182;7.650;2023-04-03T00:34:08;7.00;59.50
12704;DHT22;6416;52.182;7.650;2023-04-03T00:36:33;7.00;59.60
12704;DHT22;6416;52.182;7.650;2023-04-03T00:38:59;7.00;59.70
12704;DHT22;6416;52.182;7.650;2023-04-03T00:41:24;7.00;59.70
12704;DHT22;6416;52.182;7.650;2023-04-03T00:43:50;6.90;59.60
12704;DHT22;6416;52.182;7.650;2023-04-03T00:46:15;6.90;59.80
12704;DHT22;6416;52.182;7.650;2023-04-03T00:48:44;6.80;59.70
12704;DHT22;6416;52.182;7.650;2023-04-03T00:51:14;6.80;59.70
12704;DHT22;6416;52.182;7.650;2023-04-03T00:53:44;6.80;59.80
12704;DHT22;6416;52.182;7.650;2023-04-03T00:56:15;6.80;59.90
12704;DHT22;6416;52.182;7.650;2023-04-03T00:59:09;6.80;59.80
12704;DHT22;6416;52.182;7.650;2023-04-03T01:01:36;6.70;59.80
12704;DHT22;6416;52.182;7.650;2023-04-03T01:04:03;6.70;59.60
12704;DHT22;6416;52.182;7.650;2023-04-03T01:06:32;6.70;59.70
12704;DHT22;6416;52.182;7.650;2023-04-03T01:08:59;6.60;59.60
12704;DHT22;6416;52.182;7.650;2023-04-03T01:11:24;6.60;59.60
12704;DHT22;6416;52.182;7.650;2023-04-03T01:13:50;6.60;59.70
12704;DHT22;6416;52.182;7.650;2023-04-03T01:16:15;6.60;59.70
12704;DHT22;6416;52.182;7.650;2023-04-03T01:18:42;6.50;59.60
12704;DHT22;6416;52.182;7.650;2023-04-03T01:26:42;6.50;59.30
12704;DHT22;6416;52.182;7.650;2023-04-03T01:29:08;6.50;59.30
12704;DHT22;6416;52.182;7.650;2023-04-03T01:31:48;6.40;59.20
12704;DHT22;6416;52.182;7.650;2023-04-03T01:34:14;6.40;59.10
12704;DHT22;6416;52.182;7.650;2023-04-03T01:36:39;6.40;59.10
12704;DHT22;6416;52.182;7.650;2023-04-03T01:39:05;6.30;59.00
12704;DHT22;6416;52.182;7.650;2023-04-03T01:41:30;6.30;59.00
12704;DHT22;6416;52.182;7.650;2023-04-03T01:43:56;6.30;59.10
12704;DHT22;6416;52.182;7.650;2023-04-03T01:46:22;6.30;59.00
12704;DHT22;6416;52.182;7.650;2023-04-03T01:48:48;6.20;59.00
12704;DHT22;6416;52.182;7.650;2023-04-03T01:51:14;6.20;59.00
12704;DHT22;6416;52.182;7.650;2023-04-03T01:53:39;6.20;59.00
12704;DHT22;6416;52.182;7.650;2023-04-03T01:56:05;6.20;59.10
12704;DHT22;6416;52.182;7.650;2023-04-03T01:58:31;6.20;59.00
12704;DHT22;6416;52.182;7.650;2023-04-03T02:00:56;6.10;58.90
12704;DHT22;6416;52.182;7.650;2023-04-03T02:03:22;6.10;59.00
12704;DHT22;6416;52.182;7.650;2023-04-03T02:05:47;6.10;59.10
12704;DHT22;6416;52.182;7.650;2023-04-03T02:08:13;6.10;59.10
12704;DHT22;6416;52.182;7.650;2023-04-03T02:10:38;6.00;59.10
12704;DHT22;6416;52.182;7.650;2023-04-03T02:13:03;6.00;59.10
12704;DHT22;6416;52.182;7.650;2023-04-03T02:15:29;6.00;59.20
12704;DHT22;6416;52.182;7.650;2023-04-03T02:17:54;6.00;59.20
12704;DHT22;6416;52.182;7.650;2023-04-03T02:20:20;5.90;59.10
12704;DHT22;6416;52.182;7.650;2023-04-03T02:22:46;5.90;59.10
12704;DHT22;6416;52.182;7.650;2023-04-03T02:25:12;5.90;59.10
12704;DHT22;6416;52.182;7.650;2023-04-03T02:27:38;5.80;59.10
12704;DHT22;6416;52.182;7.650;2023-04-03T02:30:04;5.80;59.10
12704;DHT22;6416;52.182;7.650;2023-04-03T02:32:30;5.80;59.20
12704;DHT22;6416;52.182;7.650;2023-04-03T02:34:55;5.70;59.10
12704;DHT22;6416;52.182;7.650;2023-04-03T02:37:21;5.70;59.20
12704;DHT22;6416;52.182;7.650;2023-04-03T02:39:46;5.70;59.20
12704;DHT22;6416;52.182;7.650;2023-04-03T02:42:12;5.60;59.20
12704;DHT22;6416;52.182;7.650;2023-04-03T02:44:37;5.60;59.30
12704;DHT22;6416;52.182;7.650;2023-04-03T02:47:03;5.60;59.40
12704;DHT22;6416;52.182;7.650;2023-04-03T02:49:28;5.50;59.30
12704;DHT22;6416;52.182;7.650;2023-04-03T02:51:54;5.50;59.30
12704;DHT22;6416;52.182;7.650;2023-04-03T02:54:19;5.50;59.40
12704;DHT22;6416;52.182;7.650;2023-04-03T02:56:45;5.40;59.40
12704;DHT22;6416;52.182;7.650;2023-04-03T02:59:10;5.40;59.40
12704;DHT22;6416;52.182;7.650;2023-04-03T03:01:36;5.40;59.40
12704;DHT22;6416;52.182;7.650;2023-04-03T03:04:01;5.40;59.40
12704;DHT22;6416;52.182;7.650;2023-04-03T03:06:27;5.30;59.50
12704;DHT22;6416;52.182;7.650;2023-04-03T03:08:52;5.30;59.50
12704;DHT22;6416;52.182;7.650;2023-04-03T03:11:18;5.30;59.60
12704;DHT22;6416;52.182;7.650;2023-04-03T03:13:45;5.20;59.50
12704;DHT22;6416;52.182;7.650;2023-04-03T03:16:10;5.20;59.60
12704;DHT22;6416;52.182;7.650;2023-04-03T03:18:36;5.20;59.60
12704;DHT22;6416;52.182;7.650;2023-04-03T03:21:02;5.10;59.50
12704;DHT22;6416;52.182;7.650;2023-04-03T03:23:28;5.10;59.60
12704;DHT22;6416;52.182;7.650;2023-04-03T03:25:56;5.10;59.60
12704;DHT22;6416;52.182;7.650;2023-04-03T03:28:22;5.00;59.60
12704;DHT22;6416;52.182;7.650;2023-04-03T03:30:48;5.00;59.60
12704;DHT22;6416;52.182;7.650;2023-04-03T03:33:13;5.00;59.70
12704;DHT22;6416;52.182;7.650;2023-04-03T03:35:39;4.90;59.60
12704;DHT22;6416;52.182;7.650;2023-04-03T03:38:04;4.90;59.60
12704;DHT22;6416;52.182;7.650;2023-04-03T03:40:29;4.90;59.70
12704;DHT22;6416;52.182;7.650;2023-04-03T03:42:55;4.80;59.60
12704;DHT22;6416;52.182;7.650;2023-04-03T03:45:20;4.70;59.60
12704;DHT22;6416;52.182;7.650;2023-04-03T03:47:46;4.70;59.60
12704;DHT22;6416;52.182;7.650;2023-04-03T03:50:11;4.70;59.60
12704;DHT22;6416;52.182;7.650;2023-04-03T03:52:37;4.60;59.60
12704;DHT22;6416;52.182;7.650;2023-04-03T03:55:02;4.60;59.60
12704;DHT22;6416;52.182;7.650;2023-04-03T03:57:28;4.50;59.60
12704;DHT22;6416;52.182;7.650;2023-04-03T03:59:54;4.50;59.70
12704;DHT22;6416;52.182;7.650;2023-04-03T04:02:19;4.50;59.80
12704;DHT22;6416;52.182;7.650;2023-04-03T04:04:45;4.40;59.80
12704;DHT22;6416;52.182;7.650;2023-04-03T04:07:10;4.40;59.90
12704;DHT22;6416;52.182;7.650;2023-04-03T04:09:36;4.40;59.90
12704;DHT22;6416;52.182;7.650;2023-04-03T04:12:01;4.40;60.00
12704;DHT22;6416;52.182;7.650;2023-04-03T04:14:27;4.40;60.00
12704;DHT22;6416;52.182;7.650;2023-04-03T04:16:52;4.30;60.00
12704;DHT22;6416;52.182;7.650;2023-04-03T04:19:18;4.30;60.10
12704;DHT22;6416;52.182;7.650;2023-04-03T04:21:43;4.30;60.00
12704;DHT22;6416;52.182;7.650;2023-04-03T04:24:09;4.30;60.10
12704;DHT22;6416;52.182;7.650;2023-04-03T04:26:34;4.20;60.10
12704;DHT22;6416;52.182;7.650;2023-04-03T04:29:00;4.20;60.00
12704;DHT22;6416;52.182;7.650;2023-04-03T04:31:26;4.20;60.10
12704;DHT22;6416;52.182;7.650;2023-04-03T04:33:52;4.10;60.10
12704;DHT22;6416;52.182;7.650;2023-04-03T04:36:17;4.10;60.20
12704;DHT22;6416;52.182;7.650;2023-04-03T04:38:43;4.10;60.20
12704;DHT22;6416;52.182;7.650;2023-04-03T04:41:08;4.10;60.20
12704;DHT22;6416;52.182;7.650;2023-04-03T04:43:34;4.10;60.30
12704;DHT22;6416;52.182;7.650;2023-04-03T04:46:04;4.10;60.30
12704;DHT22;6416;52.182;7.650;2023-04-03T04:48:30;4.10;60.30
12704;DHT22;6416;52.182;7.650;2023-04-03T04:50:55;4.10;60.30
12704;DHT22;6416;52.182;7.650;2023-04-03T04:53:21;4.00;61.00
12704;DHT22;6416;52.182;7.650;2023-04-03T04:55:46;4.00;60.30
12704;DHT22;6416;52.182;7.650;2023-04-03T04:58:12;4.00;60.30
12704;DHT22;6416;52.182;7.650;2023-04-03T05:00:37;4.00;61.10
12704;DHT22;6416;52.182;7.650;2023-04-03T05:03:03;4.00;60.40
12704;DHT22;6416;52.182;7.650;2023-04-03T05:05:28;4.00;60.50
12704;DHT22;6416;52.182;7.650;2023-04-03T05:07:54;4.00;60.50
12704;DHT22;6416;52.182;7.650;2023-04-03T05:10:19;4.00;60.50
12704;DHT22;6416;52.182;7.650;2023-04-03T05:12:45;4.00;60.50
12704;DHT22;6416;52.182;7.650;2023-04-03T05:15:10;3.90;60.50
12704;DHT22;6416;52.182;7.650;2023-04-03T05:17:36;3.90;60.50
12704;DHT22;6416;52.182;7.650;2023-04-03T05:20:03;3.90;60.50
12704;DHT22;6416;52.182;7.650;2023-04-03T05:22:28;3.90;60.60
12704;DHT22;6416;52.182;7.650;2023-04-03T05:24:54;3.90;61.40
12704;DHT22;6416;52.182;7.650;2023-04-03T05:27:19;3.90;60.70
12704;DHT22;6416;52.182;7.650;2023-04-03T05:29:45;3.90;60.80
12704;DHT22;6416;52.182;7.650;2023-04-03T05:32:10;3.90;61.50
12704;DHT22;6416;52.182;7.650;2023-04-03T05:34:36;3.90;60.80
12704;DHT22;6416;52.182;7.650;2023-04-03T05:37:02;3.90;60.90
12704;DHT22;6416;52.182;7.650;2023-04-03T05:39:27;4.00;61.20
12704;DHT22;6416;52.182;7.650;2023-04-03T05:41:53;4.00;61.40
12704;DHT22;6416;52.182;7.650;2023-04-03T05:44:18;4.10;61.80
12704;DHT22;6416;52.182;7.650;2023-04-03T05:46:43;4.20;62.50
12704;DHT22;6416;52.182;7.650;2023-04-03T05:49:09;4.40;63.00
12704;DHT22;6416;52.182;7.650;2023-04-03T05:51:36;4.60;63.50
12704;DHT22;6416;52.182;7.650;2023-04-03T05:56:39;5.30;63.80
12704;DHT22;6416;52.182;7.650;2023-04-03T05:59:05;5.60;63.80
12704;DHT22;6416;52.182;7.650;2023-04-03T06:01:30;5.90;63.50
12704;DHT22;6416;52.182;7.650;2023-04-03T06:03:56;6.20;63.30
12704;DHT22;6416;52.182;7.650;2023-04-03T06:06:21;6.50;62.40
12704;DHT22;6416;52.182;7.650;2023-04-03T06:08:47;6.90;62.20
12704;DHT22;6416;52.182;7.650;2023-04-03T06:11:12;7.10;61.60
12704;DHT22;6416;52.182;7.650;2023-04-03T06:13:37;7.40;61.80
12704;DHT22;6416;52.182;7.650;2023-04-03T06:16:04;7.70;61.50
12704;DHT22;6416;52.182;7.650;2023-04-03T06:18:29;8.00;61.40
12704;DHT22;6416;52.182;7.650;2023-04-03T06:20:55;8.30;61.30
12704;DHT22;6416;52.182;7.650;2023-04-03T06:23:20;8.50;60.80
12704;DHT22;6416;52.182;7.650;2023-04-03T06:25:46;8.80;60.40
12704;DHT22;6416;52.182;7.650;2023-04-03T06:28:11;9.10;60.10
12704;DHT22;6416;52.182;7.650;2023-04-03T06:30:37;9.40;59.90
12704;DHT22;6416;52.182;7.650;2023-04-03T06:33:03;9.60;59.20
12704;DHT22;6416;52.182;7.650;2023-04-03T06:35:28;9.80;59.30
12704;DHT22;6416;52.182;7.650;2023-04-03T06:37:54;10.10;58.50
12704;DHT22;6416;52.182;7.650;2023-04-03T06:40:22;10.30;57.60
12704;DHT22;6416;52.182;7.650;2023-04-03T06:42:48;10.50;57.00
12704;DHT22;6416;52.182;7.650;2023-04-03T06:45:14;10.80;57.70
12704;DHT22;6416;52.182;7.650;2023-04-03T06:47:39;11.00;56.50
12704;DHT22;6416;52.182;7.650;2023-04-03T06:50:05;11.20;56.40
12704;DHT22;6416;52.182;7.650;2023-04-03T06:52:31;11.50;56.80
12704;DHT22;6416;52.182;7.650;2023-04-03T06:54:56;11.70;56.20
12704;DHT22;6416;52.182;7.650;2023-04-03T06:57:22;11.90;55.70
12704;DHT22;6416;52.182;7.650;2023-04-03T06:59:47;12.10;55.50
12704;DHT22;6416;52.182;7.650;2023-04-03T07:02:13;12.30;55.90
12704;DHT22;6416;52.182;7.650;2023-04-03T07:04:38;12.60;56.10
12704;DHT22;6416;52.182;7.650;2023-04-03T07:07:04;12.80;55.40
12704;DHT22;6416;52.182;7.650;2023-04-03T07:09:29;13.00;53.50
12704;DHT22;6416;52.182;7.650;2023-04-03T07:11:55;13.20;52.30
12704;DHT22;6416;52.182;7.650;2023-04-03T07:14:20;13.40;53.50
12704;DHT22;6416;52.182;7.650;2023-04-03T07:16:46;13.50;53.80
12704;DHT22;6416;52.182;7.650;2023-04-03T07:19:11;13.70;54.20
12704;DHT22;6416;52.182;7.650;2023-04-03T07:21:37;13.90;52.90
12704;DHT22;6416;52.182;7.650;2023-04-03T07:24:02;14.20;53.50
12704;DHT22;6416;52.182;7.650;2023-04-03T07:26:28;14.40;53.60
12704;DHT22;6416;52.182;7.650;2023-04-03T07:28:53;14.60;52.20
12704;DHT22;6416;52.182;7.650;2023-04-03T07:31:19;14.80;51.60
12704;DHT22;6416;52.182;7.650;2023-04-03T07:33:44;14.90;51.20
12704;DHT22;6416;52.182;7.650;2023-04-03T07:36:14;15.10;50.60
12704;DHT22;6416;52.182;7.650;2023-04-03T07:38:40;15.30;49.80
12704;DHT22;6416;52.182;7.650;2023-04-03T07:41:06;15.50;52.10
12704;DHT22;6416;52.182;7.650;2023-04-03T07:43:32;15.60;50.60
12704;DHT22;6416;52.182;7.650;2023-04-03T07:45:58;15.80;50.40
12704;DHT22;6416;52.182;7.650;2023-04-03T07:48:26;16.00;50.70
12704;DHT22;6416;52.182;7.650;2023-04-03T07:50:52;16.20;51.10
12704;DHT22;6416;52.182;7.650;2023-04-03T07:53:18;16.40;51.10
12704;DHT22;6416;52.182;7.650;2023-04-03T07:55:47;16.70;51.60
12704;DHT22;6416;52.182;7.650;2023-04-03T07:58:15;17.00;50.30
12704;DHT22;6416;52.182;7.650;2023-04-03T08:00:40;17.30;51.00
12704;DHT22;6416;52.182;7.650;2023-04-03T08:03:06;17.60;49.90
12704;DHT22;6416;52.182;7.650;2023-04-03T08:05:37;17.90;49.50
12704;DHT22;6416;52.182;7.650;2023-04-03T08:08:02;18.20;48.30
12704;DHT22;6416;52.182;7.650;2023-04-03T08:10:30;18.50;49.60
12704;DHT22;6416;52.182;7.650;2023-04-03T08:12:55;18.80;48.40
12704;DHT22;6416;52.182;7.650;2023-04-03T08:15:21;19.00;48.20
12704;DHT22;6416;52.182;7.650;2023-04-03T08:17:46;19.20;47.90
12704;DHT22;6416;52.182;7.650;2023-04-03T08:20:12;19.30;47.00
12704;DHT22;6416;52.182;7.650;2023-04-03T08:22:37;19.50;46.60
12704;DHT22;6416;52.182;7.650;2023-04-03T08:25:03;19.60;44.40
12704;DHT22;6416;52.182;7.650;2023-04-03T08:27:28;19.70;45.50
12704;DHT22;6416;52.182;7.650;2023-04-03T08:29:55;19.90;44.20
12704;DHT22;6416;52.182;7.650;2023-04-03T08:32:21;20.00;41.90
12704;DHT22;6416;52.182;7.650;2023-04-03T08:34:46;20.10;42.40
12704;DHT22;6416;52.182;7.650;2023-04-03T08:37:12;20.20;41.40
12704;DHT22;6416;52.182;7.650;2023-04-03T08:39:37;20.20;41.70
12704;DHT22;6416;52.182;7.650;2023-04-03T08:42:47;20.30;40.40
12704;DHT22;6416;52.182;7.650;2023-04-03T08:48:27;20.50;36.50
12704;DHT22;6416;52.182;7.650;2023-04-03T08:50:58;20.60;36.20
12704;DHT22;6416;52.182;7.650;2023-04-03T08:53:30;20.70;39.50
12704;DHT22;6416;52.182;7.650;2023-04-03T08:55:58;20.90;38.10
12704;DHT22;6416;52.182;7.650;2023-04-03T08:58:29;21.00;39.90
12704;DHT22;6416;52.182;7.650;2023-04-03T09:01:05;21.10;38.10
12704;DHT22;6416;52.182;7.650;2023-04-03T09:03:36;21.20;39.30
12704;DHT22;6416;52.182;7.650;2023-04-03T09:13:54;22.10;38.40
12704;DHT22;6416;52.182;7.650;2023-04-03T09:19:22;22.40;35.70
12704;DHT22;6416;52.182;7.650;2023-04-03T09:21:51;22.50;38.00
12704;DHT22;6416;52.182;7.650;2023-04-03T09:24:17;22.80;40.50
12704;DHT22;6416;52.182;7.650;2023-04-03T09:27:10;23.00;40.30
12704;DHT22;6416;52.182;7.650;2023-04-03T09:29:39;23.30;35.30
12704;DHT22;6416;52.182;7.650;2023-04-03T09:32:18;23.50;38.70
12704;DHT22;6416;52.182;7.650;2023-04-03T09:34:46;23.70;36.40
12704;DHT22;6416;52.182;7.650;2023-04-03T09:37:34;23.90;37.20
12704;DHT22;6416;52.182;7.650;2023-04-03T09:40:00;24.10;33.80
12704;DHT22;6416;52.182;7.650;2023-04-03T09:42:26;24.20;37.10
12704;DHT22;6416;52.182;7.650;2023-04-03T09:45:05;24.30;37.70
12704;DHT22;6416;52.182;7.650;2023-04-03T09:47:36;24.40;35.90
12704;DHT22;6416;52.182;7.650;2023-04-03T09:50:20;24.60;35.80
12704;DHT22;6416;52.182;7.650;2023-04-03T09:52:48;24.80;35.10
12704;DHT22;6416;52.182;7.650;2023-04-03T09:55:17;24.90;36.70
12704;DHT22;6416;52.182;7.650;2023-04-03T09:57:43;25.00;35.50
12704;DHT22;6416;52.182;7.650;2023-04-03T10:00:22;25.10;36.00
12704;DHT22;6416;52.182;7.650;2023-04-03T10:02:51;25.10;32.50
12704;DHT22;6416;52.182;7.650;2023-04-03T10:05:39;25.20;35.80
12704;DHT22;6416;52.182;7.650;2023-04-03T10:10:44;25.30;34.10
12704;DHT22;6416;52.182;7.650;2023-04-03T10:13:18;25.30;34.50
12704;DHT22;6416;52.182;7.650;2023-04-03T10:18:36;25.40;35.30
12704;DHT22;6416;52.182;7.650;2023-04-03T10:21:29;25.50;34.20
12704;DHT22;6416;52.182;7.650;2023-04-03T10:24:47;25.60;30.10
12704;DHT22;6416;52.182;7.650;2023-04-03T10:31:03;25.90;30.90
12704;DHT22;6416;52.182;7.650;2023-04-03T10:45:14;25.60;32.20
12704;DHT22;6416;52.182;7.650;2023-04-03T10:47:24;25.70;31.90
12704;DHT22;6416;52.182;7.650;2023-04-03T10:58:44;26.10;31.80
12704;DHT22;6416;52.182;7.650;2023-04-03T11:01:18;26.20;30.70
12704;DHT22;6416;52.182;7.650;2023-04-03T11:03:52;26.30;30.80
12704;DHT22;6416;52.182;7.650;2023-04-03T11:06:20;26.20;29.50
12704;DHT22;6416;52.182;7.650;2023-04-03T11:08:59;26.30;32.50
12704;DHT22;6416;52.182;7.650;2023-04-03T11:11:37;26.30;31.90
12704;DHT22;6416;52.182;7.650;2023-04-03T11:14:32;26.50;31.00
12704;DHT22;6416;52.182;7.650;2023-04-03T11:22:35;26.80;30.00
12704;DHT22;6416;52.182;7.650;2023-04-03T11:27:43;27.00;31.50
12704;DHT22;6416;52.182;7.650;2023-04-03T11:30:22;27.20;30.30
12704;DHT22;6416;52.182;7.650;2023-04-03T11:35:50;27.40;30.90
12704;DHT22;6416;52.182;7.650;2023-04-03T11:38:38;27.60;32.50
12704;DHT22;6416;52.182;7.650;2023-04-03T11:41:08;27.80;30.40
12704;DHT22;6416;52.182;7.650;2023-04-03T11:43:40;27.90;30.80
12704;DHT22;6416;52.182;7.650;2023-04-03T11:46:07;28.10;31.30
12704;DHT22;6416;52.182;7.650;2023-04-03T11:53:40;28.40;30.50
12704;DHT22;6416;52.182;7.650;2023-04-03T12:04:13;27.60;27.50
12704;DHT22;6416;52.182;7.650;2023-04-03T12:09:26;27.20;30.00
12704;DHT22;6416;52.182;7.650;2023-04-03T12:11:52;27.10;29.10
12704;DHT22;6416;52.182;7.650;2023-04-03T12:14:17;27.10;30.20
12704;DHT22;6416;52.182;7.650;2023-04-03T12:16:46;27.10;29.60
12704;DHT22;6416;52.182;7.650;2023-04-03T12:24:23;27.00;27.60
12704;DHT22;6416;52.182;7.650;2023-04-03T12:38:13;26.60;28.90
12704;DHT22;6416;52.182;7.650;2023-04-03T12:46:12;26.70;29.90
12704;DHT22;6416;52.182;7.650;2023-04-03T12:54:02;26.80;27.70
12704;DHT22;6416;52.182;7.650;2023-04-03T12:56:30;26.70;28.50
12704;DHT22;6416;52.182;7.650;2023-04-03T12:59:24;26.60;28.20
12704;DHT22;6416;52.182;7.650;2023-04-03T13:01:55;26.50;28.60
12704;DHT22;6416;52.182;7.650;2023-04-03T13:04:21;26.40;28.60
12704;DHT22;6416;52.182;7.650;2023-04-03T13:06:47;26.20;28.00
12704;DHT22;6416;52.182;7.650;2023-04-03T13:09:21;25.90;28.20
12704;DHT22;6416;52.182;7.650;2023-04-03T13:11:50;25.50;26.90
12704;DHT22;6416;52.182;7.650;2023-04-03T13:14:21;25.20;28.00
12704;DHT22;6416;52.182;7.650;2023-04-03T13:16:58;24.70;27.30
12704;DHT22;6416;52.182;7.650;2023-04-03T13:19:26;24.30;27.50
12704;DHT22;6416;52.182;7.650;2023-04-03T13:22:07;23.90;28.40
12704;DHT22;6416;52.182;7.650;2023-04-03T13:24:37;23.70;28.30
12704;DHT22;6416;52.182;7.650;2023-04-03T13:27:06;23.50;28.40
12704;DHT22;6416;52.182;7.650;2023-04-03T13:29:34;23.30;28.00
12704;DHT22;6416;52.182;7.650;2023-04-03T13:32:02;23.20;28.50
12704;DHT22;6416;52.182;7.650;2023-04-03T13:34:36;23.10;28.30
12704;DHT22;6416;52.182;7.650;2023-04-03T13:37:02;23.00;28.30
12704;DHT22;6416;52.182;7.650;2023-04-03T13:39:32;23.00;28.60
12704;DHT22;6416;52.182;7.650;2023-04-03T13:42:00;23.00;28.70
12704;DHT22;6416;52.182;7.650;2023-04-03T13:44:33;22.90;29.10
12704;DHT22;6416;52.182;7.650;2023-04-03T13:49:41;22.40;27.90
12704;DHT22;6416;52.182;7.650;2023-04-03T13:53:02;22.10;27.20
12704;DHT22;6416;52.182;7.650;2023-04-03T13:55:31;21.70;27.10
12704;DHT22;6416;52.182;7.650;2023-04-03T13:58:00;21.30;27.10
12704;DHT22;6416;52.182;7.650;2023-04-03T14:00:39;20.90;27.40
12704;DHT22;6416;52.182;7.650;2023-04-03T14:05:54;20.10;27.40
12704;DHT22;6416;52.182;7.650;2023-04-03T14:08:20;19.70;27.60
12704;DHT22;6416;52.182;7.650;2023-04-03T14:10:46;19.40;28.00
12704;DHT22;6416;52.182;7.650;2023-04-03T14:13:14;19.20;28.50
12704;DHT22;6416;52.182;7.650;2023-04-03T14:15:40;18.90;28.40
12704;DHT22;6416;52.182;7.650;2023-04-03T14:18:05;18.70;28.40
12704;DHT22;6416;52.182;7.650;2023-04-03T14:20:31;18.50;28.60
12704;DHT22;6416;52.182;7.650;2023-04-03T14:22:56;18.30;29.10
12704;DHT22;6416;52.182;7.650;2023-04-03T14:25:22;18.10;29.00
12704;DHT22;6416;52.182;7.650;2023-04-03T14:27:50;17.90;28.90
12704;DHT22;6416;52.182;7.650;2023-04-03T14:30:23;17.70;29.20
12704;DHT22;6416;52.182;7.650;2023-04-03T14:32:49;17.60;29.30
12704;DHT22;6416;52.182;7.650;2023-04-03T14:35:15;17.50;29.50
12704;DHT22;6416;52.182;7.650;2023-04-03T14:37:42;17.50;29.80
12704;DHT22;6416;52.182;7.650;2023-04-03T14:40:11;17.40;29.50
12704;DHT22;6416;52.182;7.650;2023-04-03T14:42:41;17.30;29.50
12704;DHT22;6416;52.182;7.650;2023-04-03T14:45:09;17.20;29.40
12704;DHT22;6416;52.182;7.650;2023-04-03T14:47:43;17.10;29.50
12704;DHT22;6416;52.182;7.650;2023-04-03T14:50:13;16.90;29.30
12704;DHT22;6416;52.182;7.650;2023-04-03T14:52:39;16.80;29.30
12704;DHT22;6416;52.182;7.650;2023-04-03T14:55:06;16.70;29.60
12704;DHT22;6416;52.182;7.650;2023-04-03T14:57:32;16.60;29.80
12704;DHT22;6416;52.182;7.650;2023-04-03T14:59:58;16.50;29.80
12704;DHT22;6416;52.182;7.650;2023-04-03T15:02:32;16.50;29.90
12704;DHT22;6416;52.182;7.650;2023-04-03T15:05:00;16.40;29.80
12704;DHT22;6416;52.182;7.650;2023-04-03T15:07:28;16.30;30.00
12704;DHT22;6416;52.182;7.650;2023-04-03T15:09:54;16.30;30.40
12704;DHT22;6416;52.182;7.650;2023-04-03T15:12:19;16.20;30.30
12704;DHT22;6416;52.182;7.650;2023-04-03T15:14:44;16.10;30.30
12704;DHT22;6416;52.182;7.650;2023-04-03T15:17:19;16.00;30.00
12704;DHT22;6416;52.182;7.650;2023-04-03T15:19:46;15.90;30.10
12704;DHT22;6416;52.182;7.650;2023-04-03T15:22:16;15.80;30.00
12704;DHT22;6416;52.182;7.650;2023-04-03T15:24:43;15.70;30.00
12704;DHT22;6416;52.182;7.650;2023-04-03T15:27:10;15.60;30.50
12704;DHT22;6416;52.182;7.650;2023-04-03T15:29:36;15.50;30.30
12704;DHT22;6416;52.182;7.650;2023-04-03T15:32:02;15.50;30.80
12704;DHT22;6416;52.182;7.650;2023-04-03T15:34:28;15.50;31.00
12704;DHT22;6416;52.182;7.650;2023-04-03T15:36:53;15.50;31.40
12704;DHT22;6416;52.182;7.650;2023-04-03T15:39:19;15.50;31.90
12704;DHT22;6416;52.182;7.650;2023-04-03T15:41:44;15.50;31.60
12704;DHT22;6416;52.182;7.650;2023-04-03T15:44:10;15.50;31.20
12704;DHT22;6416;52.182;7.650;2023-04-03T15:46:36;15.50;31.20
12704;DHT22;6416;52.182;7.650;2023-04-03T15:49:01;15.30;30.80
12704;DHT22;6416;52.182;7.650;2023-04-03T15:51:27;15.20;30.80
12704;DHT22;6416;52.182;7.650;2023-04-03T15:53:52;15.20;31.10
12704;DHT22;6416;52.182;7.650;2023-04-03T15:56:18;15.00;31.30
12704;DHT22;6416;52.182;7.650;2023-04-03T15:58:43;14.90;31.40
12704;DHT22;6416;52.182;7.650;2023-04-03T16:01:10;14.80;31.60
12704;DHT22;6416;52.182;7.650;2023-04-03T16:03:35;14.80;31.60
12704;DHT22;6416;52.182;7.650;2023-04-03T16:06:01;14.70;31.50
12704;DHT22;6416;52.182;7.650;2023-04-03T16:08:27;14.70;31.60
12704;DHT22;6416;52.182;7.650;2023-04-03T16:10:52;14.60;31.50
12704;DHT22;6416;52.182;7.650;2023-04-03T16:13:18;14.50;31.50
12704;DHT22;6416;52.182;7.650;2023-04-03T16:15:43;14.50;31.50
12704;DHT22;6416;52.182;7.650;2023-04-03T16:18:09;14.40;31.50
12704;DHT22;6416;52.182;7.650;2023-04-03T16:20:35;14.30;31.50
12704;DHT22;6416;52.182;7.650;2023-04-03T16:23:01;14.30;31.60
12704;DHT22;6416;52.182;7.650;2023-04-03T16:25:26;14.10;31.60
12704;DHT22;6416;52.182;7.650;2023-04-03T16:27:52;14.00;31.90
12704;DHT22;6416;52.182;7.650;2023-04-03T16:30:18;13.90;31.60
12704;DHT22;6416;52.182;7.650;2023-04-03T16:32:44;13.80;31.70
12704;DHT22;6416;52.182;7.650;2023-04-03T16:35:10;13.80;31.90
12704;DHT22;6416;52.182;7.650;2023-04-03T16:37:36;13.80;32.10
12704;DHT22;6416;52.182;7.650;2023-04-03T16:40:03;13.70;32.20
12704;DHT22;6416;52.182;7.650;2023-04-03T16:42:29;13.60;33.00
12704;DHT22;6416;52.182;7.650;2023-04-03T16:44:54;13.60;32.30
12704;DHT22;6416;52.182;7.650;2023-04-03T16:47:19;13.60;32.60
12704;DHT22;6416;52.182;7.650;2023-04-03T16:49:45;13.50;32.70
12704;DHT22;6416;52.182;7.650;2023-04-03T16:52:11;13.50;32.60
12704;DHT22;6416;52.182;7.650;2023-04-03T16:54:37;13.50;32.60
12704;DHT22;6416;52.182;7.650;2023-04-03T16:57:03;13.40;32.70
12704;DHT22;6416;52.182;7.650;2023-04-03T16:59:28;13.30;32.50
12704;DHT22;6416;52.182;7.650;2023-04-03T17:01:54;13.30;32.70
12704;DHT22;6416;52.182;7.650;2023-04-03T17:04:19;13.30;32.80
12704;DHT22;6416;52.182;7.650;2023-04-03T17:06:45;13.20;32.80
12704;DHT22;6416;52.182;7.650;2023-04-03T17:09:11;13.10;32.90
12704;DHT22;6416;52.182;7.650;2023-04-03T17:11:36;13.10;32.90
12704;DHT22;6416;52.182;7.650;2023-04-03T17:14:02;13.10;33.00
12704;DHT22;6416;52.182;7.650;2023-04-03T17:16:30;13.00;33.00
12704;DHT22;6416;52.182;7.650;2023-04-03T17:18:57;13.00;33.00
12704;DHT22;6416;52.182;7.650;2023-04-03T17:21:23;12.90;33.00
12704;DHT22;6416;52.182;7.650;2023-04-03T17:23:52;12.90;33.20
12704;DHT22;6416;52.182;7.650;2023-04-03T17:26:19;12.80;33.20
12704;DHT22;6416;52.182;7.650;2023-04-03T17:28:44;12.80;33.40
12704;DHT22;6416;52.182;7.650;2023-04-03T17:31:10;12.70;34.00
12704;DHT22;6416;52.182;7.650;2023-04-03T17:33:35;12.70;33.40
12704;DHT22;6416;52.182;7.650;2023-04-03T17:36:02;12.70;33.40
12704;DHT22;6416;52.182;7.650;2023-04-03T17:38:28;12.60;33.30
12704;DHT22;6416;52.182;7.650;2023-04-03T17:40:57;12.60;33.30
12704;DHT22;6416;52.182;7.650;2023-04-03T17:43:24;12.50;33.30
12704;DHT22;6416;52.182;7.650;2023-04-03T17:45:49;12.50;33.50